sensor_id;sensor_type;location;lat;lon;timestamp;P1;durP1;ratioP1;P2;durP2;ratioP2
80229;SDS011;69540;42.136;24.742;2023-05-29T00:02:07;1.25;;;1.17;;
80229;SDS011;69540;42.136;24.742;2023-05-29T00:04:32;0.80;;;0.80;;
80229;SDS011;69540;42.136;24.742;2023-05-29T00:06:58;1.35;;;1.25;;
80229;SDS011;69540;42.136;24.742;2023-05-29T00:09:24;1.10;;;1.08;;
80229;SDS011;69540;42.136;24.742;2023-05-29T00:11:50;1.10;;;1.10;;
80229;SDS011;69540;42.136;24.742;2023-05-29T00:14:20;1.15;;;1.15;;
80229;SDS011;69540;42.136;24.742;2023-05-29T00:16:47;1.08;;;1.08;;
80229;SDS011;69540;42.136;24.742;2023-05-29T00:19:14;1.02;;;1.02;;
80229;SDS011;69540;42.136;24.742;2023-05-29T00:21:42;1.15;;;1.10;;
80229;SDS011;69540;42.136;24.742;2023-05-29T00:24:08;1.20;;;1.10;;
80229;SDS011;69540;42.136;24.742;2023-05-29T00:26:33;1.17;;;1.17;;
80229;SDS011;69540;42.136;24.742;2023-05-29T00:28:59;1.00;;;1.00;;
80229;SDS011;69540;42.136;24.742;2023-05-29T00:31:25;1.10;;;1.10;;
80229;SDS011;69540;42.136;24.742;2023-05-29T00:33:51;0.95;;;0.95;;
80229;SDS011;69540;42.136;24.742;2023-05-29T00:36:17;1.25;;;1.15;;
80229;SDS011;69540;42.136;24.742;2023-05-29T00:38:43;0.95;;;0.95;;
80229;SDS011;69540;42.136;24.742;2023-05-29T00:41:13;1.10;;;1.10;;
80229;SDS011;69540;42.136;24.742;2023-05-29T00:43:40;1.10;;;1.10;;
80229;SDS011;69540;42.136;24.742;2023-05-29T00:46:06;0.95;;;0.95;;
80229;SDS011;69540;42.136;24.742;2023-05-29T00:48:33;1.00;;;1.00;;
80229;SDS011;69540;42.136;24.742;2023-05-29T00:50:59;1.00;;;1.00;;
80229;SDS011;69540;42.136;24.742;2023-05-29T00:53:24;1.15;;;1.15;;
80229;SDS011;69540;42.136;24.742;2023-05-29T00:55:50;1.20;;;1.10;;
80229;SDS011;69540;42.136;24.742;2023-05-29T00:58:17;1.23;;;1.13;;
80229;SDS011;69540;42.136;24.742;2023-05-29T01:00:43;1.15;;;1.05;;
80229;SDS011;69540;42.136;24.742;2023-05-29T01:03:09;1.17;;;1.17;;
80229;SDS011;69540;42.136;24.742;2023-05-29T01:05:40;1.33;;;1.23;;
80229;SDS011;69540;42.136;24.742;2023-05-29T01:08:06;1.10;;;1.10;;
80229;SDS011;69540;42.136;24.742;2023-05-29T01:10:32;0.98;;;0.98;;
80229;SDS011;69540;42.136;24.742;2023-05-29T01:13:09;1.33;;;1.23;;
80229;SDS011;69540;42.136;24.742;2023-05-29T01:23:53;1.00;;;1.00;;
80229;SDS011;69540;42.136;24.742;2023-05-29T01:26:45;1.02;;;1.02;;
80229;SDS011;69540;42.136;24.742;2023-05-29T01:29:15;0.85;;;0.85;;
80229;SDS011;69540;42.136;24.742;2023-05-29T01:31:45;1.30;;;1.30;;
80229;SDS011;69540;42.136;24.742;2023-05-29T01:34:12;1.00;;;1.00;;
80229;SDS011;69540;42.136;24.742;2023-05-29T01:36:38;1.02;;;1.02;;
80229;SDS011;69540;42.136;24.742;2023-05-29T01:39:04;1.02;;;1.00;;
80229;SDS011;69540;42.136;24.742;2023-05-29T01:41:30;1.45;;;1.35;;
80229;SDS011;69540;42.136;24.742;2023-05-29T01:43:57;1.63;;;1.40;;
80229;SDS011;69540;42.136;24.742;2023-05-29T01:46:24;0.88;;;0.88;;
80229;SDS011;69540;42.136;24.742;2023-05-29T01:48:53;1.60;;;1.20;;
80229;SDS011;69540;42.136;24.742;2023-05-29T01:51:20;0.88;;;0.88;;
80229;SDS011;69540;42.136;24.742;2023-05-29T01:53:46;1.15;;;1.15;;
80229;SDS011;69540;42.136;24.742;2023-05-29T01:56:11;1.13;;;0.90;;
80229;SDS011;69540;42.136;24.742;2023-05-29T01:58:40;1.00;;;1.00;;
80229;SDS011;69540;42.136;24.742;2023-05-29T02:01:06;0.90;;;0.90;;
80229;SDS011;69540;42.136;24.742;2023-05-29T02:03:32;1.30;;;1.20;;
80229;SDS011;69540;42.136;24.742;2023-05-29T02:05:59;1.00;;;1.00;;
80229;SDS011;69540;42.136;24.742;2023-05-29T02:08:25;1.35;;;1.25;;
80229;SDS011;69540;42.136;24.742;2023-05-29T02:10:51;1.15;;;1.15;;
80229;SDS011;69540;42.136;24.742;2023-05-29T02:13:17;1.10;;;1.10;;
80229;SDS011;69540;42.136;24.742;2023-05-29T02:15:43;1.10;;;1.10;;
80229;SDS011;69540;42.136;24.742;2023-05-29T02:18:10;0.98;;;0.98;;
80229;SDS011;69540;42.136;24.742;2023-05-29T02:20:39;1.23;;;1.17;;
80229;SDS011;69540;42.136;24.742;2023-05-29T02:23:05;1.10;;;1.10;;
80229;SDS011;69540;42.136;24.742;2023-05-29T02:25:31;1.10;;;1.10;;
80229;SDS011;69540;42.136;24.742;2023-05-29T02:27:56;1.27;;;1.20;;
80229;SDS011;69540;42.136;24.742;2023-05-29T02:30:22;1.35;;;1.23;;
80229;SDS011;69540;42.136;24.742;2023-05-29T02:32:48;1.20;;;1.20;;
80229;SDS011;69540;42.136;24.742;2023-05-29T02:35:13;1.23;;;1.17;;
80229;SDS011;69540;42.136;24.742;2023-05-29T02:37:40;1.45;;;1.20;;
80229;SDS011;69540;42.136;24.742;2023-05-29T02:40:06;1.00;;;1.00;;
80229;SDS011;69540;42.136;24.742;2023-05-29T02:42:33;1.30;;;1.20;;
80229;SDS011;69540;42.136;24.742;2023-05-29T02:44:59;1.13;;;1.02;;
80229;SDS011;69540;42.136;24.742;2023-05-29T02:47:25;1.00;;;1.00;;
80229;SDS011;69540;42.136;24.742;2023-05-29T02:49:50;1.15;;;1.15;;
80229;SDS011;69540;42.136;24.742;2023-05-29T02:52:16;0.85;;;0.85;;
80229;SDS011;69540;42.136;24.742;2023-05-29T02:54:42;0.90;;;0.90;;
80229;SDS011;69540;42.136;24.742;2023-05-29T02:57:07;0.98;;;0.98;;
80229;SDS011;69540;42.136;24.742;2023-05-29T02:59:33;1.45;;;1.15;;
80229;SDS011;69540;42.136;24.742;2023-05-29T03:01:59;1.00;;;1.00;;
80229;SDS011;69540;42.136;24.742;2023-05-29T03:04:25;0.75;;;0.75;;
80229;SDS011;69540;42.136;24.742;2023-05-29T03:06:52;1.10;;;1.00;;
80229;SDS011;69540;42.136;24.742;2023-05-29T03:09:17;1.15;;;1.10;;
80229;SDS011;69540;42.136;24.742;2023-05-29T03:11:44;1.10;;;1.10;;
80229;SDS011;69540;42.136;24.742;2023-05-29T03:14:10;1.30;;;1.20;;
80229;SDS011;69540;42.136;24.742;2023-05-29T03:16:35;1.02;;;0.95;;
80229;SDS011;69540;42.136;24.742;2023-05-29T03:19:03;1.48;;;1.38;;
80229;SDS011;69540;42.136;24.742;2023-05-29T03:21:28;1.33;;;1.23;;
80229;SDS011;69540;42.136;24.742;2023-05-29T03:23:56;1.00;;;1.00;;
80229;SDS011;69540;42.136;24.742;2023-05-29T03:26:21;1.40;;;1.30;;
80229;SDS011;69540;42.136;24.742;2023-05-29T03:28:47;1.00;;;1.00;;
80229;SDS011;69540;42.136;24.742;2023-05-29T03:31:13;1.20;;;1.10;;
80229;SDS011;69540;42.136;24.742;2023-05-29T03:33:38;0.98;;;0.82;;
80229;SDS011;69540;42.136;24.742;2023-05-29T03:36:04;1.20;;;1.15;;
80229;SDS011;69540;42.136;24.742;2023-05-29T03:38:30;1.25;;;1.20;;
80229;SDS011;69540;42.136;24.742;2023-05-29T03:40:56;1.25;;;1.17;;
80229;SDS011;69540;42.136;24.742;2023-05-29T03:43:21;1.15;;;1.13;;
80229;SDS011;69540;42.136;24.742;2023-05-29T03:45:47;1.60;;;1.50;;
80229;SDS011;69540;42.136;24.742;2023-05-29T03:48:13;1.58;;;1.48;;
80229;SDS011;69540;42.136;24.742;2023-05-29T03:50:40;3.05;;;2.10;;
80229;SDS011;69540;42.136;24.742;2023-05-29T03:53:06;2.85;;;2.20;;
80229;SDS011;69540;42.136;24.742;2023-05-29T03:55:32;2.35;;;2.13;;
80229;SDS011;69540;42.136;24.742;2023-05-29T03:57:57;2.28;;;2.10;;
80229;SDS011;69540;42.136;24.742;2023-05-29T04:00:23;3.55;;;2.30;;
80229;SDS011;69540;42.136;24.742;2023-05-29T04:02:49;2.00;;;1.80;;
80229;SDS011;69540;42.136;24.742;2023-05-29T04:05:14;3.05;;;2.10;;
80229;SDS011;69540;42.136;24.742;2023-05-29T04:07:40;2.58;;;2.22;;
80229;SDS011;69540;42.136;24.742;2023-05-29T04:10:07;3.60;;;2.55;;
80229;SDS011;69540;42.136;24.742;2023-05-29T04:12:33;3.90;;;2.30;;
80229;SDS011;69540;42.136;24.742;2023-05-29T04:14:58;4.10;;;2.30;;
80229;SDS011;69540;42.136;24.742;2023-05-29T04:17:24;3.20;;;2.90;;
80229;SDS011;69540;42.136;24.742;2023-05-29T04:19:50;3.40;;;2.60;;
80229;SDS011;69540;42.136;24.742;2023-05-29T04:22:16;3.17;;;2.58;;
80229;SDS011;69540;42.136;24.742;2023-05-29T04:24:42;3.22;;;2.50;;
80229;SDS011;69540;42.136;24.742;2023-05-29T04:27:08;3.70;;;3.03;;
80229;SDS011;69540;42.136;24.742;2023-05-29T04:29:37;3.10;;;2.80;;
80229;SDS011;69540;42.136;24.742;2023-05-29T04:32:07;3.10;;;2.33;;
80229;SDS011;69540;42.136;24.742;2023-05-29T04:34:39;3.78;;;2.40;;
80229;SDS011;69540;42.136;24.742;2023-05-29T04:37:05;2.60;;;2.40;;
80229;SDS011;69540;42.136;24.742;2023-05-29T04:39:31;3.30;;;2.80;;
80229;SDS011;69540;42.136;24.742;2023-05-29T04:41:57;3.30;;;2.50;;
80229;SDS011;69540;42.136;24.742;2023-05-29T04:44:25;2.88;;;2.50;;
80229;SDS011;69540;42.136;24.742;2023-05-29T04:46:51;2.85;;;2.50;;
80229;SDS011;69540;42.136;24.742;2023-05-29T04:49:17;3.65;;;2.60;;
80229;SDS011;69540;42.136;24.742;2023-05-29T04:51:44;3.35;;;2.70;;
80229;SDS011;69540;42.136;24.742;2023-05-29T04:54:11;5.22;;;2.95;;
80229;SDS011;69540;42.136;24.742;2023-05-29T04:56:37;3.17;;;2.78;;
80229;SDS011;69540;42.136;24.742;2023-05-29T04:59:05;3.58;;;2.70;;
80229;SDS011;69540;42.136;24.742;2023-05-29T05:01:32;3.50;;;2.70;;
80229;SDS011;69540;42.136;24.742;2023-05-29T05:04:00;2.65;;;2.45;;
80229;SDS011;69540;42.136;24.742;2023-05-29T05:06:26;3.50;;;2.28;;
80229;SDS011;69540;42.136;24.742;2023-05-29T05:08:52;3.03;;;2.63;;
80229;SDS011;69540;42.136;24.742;2023-05-29T05:11:18;3.13;;;2.38;;
80229;SDS011;69540;42.136;24.742;2023-05-29T05:13:44;3.58;;;2.72;;
80229;SDS011;69540;42.136;24.742;2023-05-29T05:16:10;3.08;;;2.83;;
80229;SDS011;69540;42.136;24.742;2023-05-29T05:18:36;3.70;;;2.85;;
80229;SDS011;69540;42.136;24.742;2023-05-29T05:21:01;3.28;;;2.83;;
80229;SDS011;69540;42.136;24.742;2023-05-29T05:23:30;2.78;;;2.58;;
80229;SDS011;69540;42.136;24.742;2023-05-29T05:25:56;3.25;;;2.88;;
80229;SDS011;69540;42.136;24.742;2023-05-29T05:28:22;2.83;;;2.63;;
80229;SDS011;69540;42.136;24.742;2023-05-29T05:30:48;3.88;;;3.03;;
80229;SDS011;69540;42.136;24.742;2023-05-29T05:33:13;3.80;;;3.10;;
80229;SDS011;69540;42.136;24.742;2023-05-29T05:35:39;4.60;;;2.83;;
80229;SDS011;69540;42.136;24.742;2023-05-29T05:38:05;3.47;;;2.90;;
80229;SDS011;69540;42.136;24.742;2023-05-29T05:40:31;2.65;;;2.42;;
80229;SDS011;69540;42.136;24.742;2023-05-29T05:42:57;2.92;;;2.70;;
80229;SDS011;69540;42.136;24.742;2023-05-29T05:45:22;3.67;;;2.90;;
80229;SDS011;69540;42.136;24.742;2023-05-29T05:47:48;5.38;;;2.80;;
80229;SDS011;69540;42.136;24.742;2023-05-29T05:50:14;3.53;;;2.63;;
80229;SDS011;69540;42.136;24.742;2023-05-29T05:52:40;2.88;;;2.65;;
80229;SDS011;69540;42.136;24.742;2023-05-29T05:55:06;3.20;;;2.90;;
80229;SDS011;69540;42.136;24.742;2023-05-29T05:57:32;3.10;;;2.80;;
80229;SDS011;69540;42.136;24.742;2023-05-29T06:00:02;3.45;;;2.55;;
80229;SDS011;69540;42.136;24.742;2023-05-29T06:02:38;2.90;;;2.42;;
80229;SDS011;69540;42.136;24.742;2023-05-29T06:05:07;3.45;;;2.50;;
80229;SDS011;69540;42.136;24.742;2023-05-29T06:07:34;3.00;;;2.80;;
80229;SDS011;69540;42.136;24.742;2023-05-29T06:10:00;2.75;;;2.55;;
80229;SDS011;69540;42.136;24.742;2023-05-29T06:12:26;2.60;;;2.40;;
80229;SDS011;69540;42.136;24.742;2023-05-29T06:14:52;2.78;;;2.58;;
80229;SDS011;69540;42.136;24.742;2023-05-29T06:17:18;2.78;;;2.33;;
80229;SDS011;69540;42.136;24.742;2023-05-29T06:19:44;2.58;;;2.38;;
80229;SDS011;69540;42.136;24.742;2023-05-29T06:22:09;3.03;;;2.70;;
80229;SDS011;69540;42.136;24.742;2023-05-29T06:24:35;2.70;;;2.50;;
80229;SDS011;69540;42.136;24.742;2023-05-29T06:27:01;3.78;;;2.67;;
80229;SDS011;69540;42.136;24.742;2023-05-29T06:29:26;2.90;;;2.70;;
80229;SDS011;69540;42.136;24.742;2023-05-29T06:31:52;2.60;;;2.40;;
80229;SDS011;69540;42.136;24.742;2023-05-29T06:34:18;2.90;;;2.58;;
80229;SDS011;69540;42.136;24.742;2023-05-29T06:36:43;2.75;;;2.28;;
80229;SDS011;69540;42.136;24.742;2023-05-29T06:39:09;2.72;;;2.50;;
80229;SDS011;69540;42.136;24.742;2023-05-29T06:41:35;2.92;;;2.20;;
80229;SDS011;69540;42.136;24.742;2023-05-29T06:44:01;2.60;;;2.40;;
80229;SDS011;69540;42.136;24.742;2023-05-29T06:46:26;2.45;;;2.25;;
80229;SDS011;69540;42.136;24.742;2023-05-29T06:48:52;2.40;;;2.20;;
80229;SDS011;69540;42.136;24.742;2023-05-29T06:51:18;3.17;;;2.63;;
80229;SDS011;69540;42.136;24.742;2023-05-29T06:53:43;2.47;;;2.28;;
80229;SDS011;69540;42.136;24.742;2023-05-29T06:56:09;2.70;;;2.50;;
80229;SDS011;69540;42.136;24.742;2023-05-29T06:58:35;2.80;;;2.60;;
80229;SDS011;69540;42.136;24.742;2023-05-29T07:01:01;2.83;;;2.58;;
80229;SDS011;69540;42.136;24.742;2023-05-29T07:03:27;2.72;;;2.53;;
80229;SDS011;69540;42.136;24.742;2023-05-29T07:05:53;3.75;;;2.50;;
80229;SDS011;69540;42.136;24.742;2023-05-29T07:08:20;2.42;;;2.30;;
80229;SDS011;69540;42.136;24.742;2023-05-29T07:10:45;3.13;;;2.53;;
80229;SDS011;69540;42.136;24.742;2023-05-29T07:13:14;2.80;;;2.60;;
80229;SDS011;69540;42.136;24.742;2023-05-29T07:15:41;2.50;;;2.30;;
80229;SDS011;69540;42.136;24.742;2023-05-29T07:18:07;2.78;;;2.50;;
80229;SDS011;69540;42.136;24.742;2023-05-29T07:20:33;2.85;;;2.58;;
80229;SDS011;69540;42.136;24.742;2023-05-29T07:22:58;3.25;;;2.50;;
80229;SDS011;69540;42.136;24.742;2023-05-29T07:25:24;2.92;;;2.33;;
80229;SDS011;69540;42.136;24.742;2023-05-29T07:27:51;2.55;;;2.35;;
80229;SDS011;69540;42.136;24.742;2023-05-29T07:30:16;2.33;;;2.20;;
80229;SDS011;69540;42.136;24.742;2023-05-29T07:32:43;2.97;;;2.60;;
80229;SDS011;69540;42.136;24.742;2023-05-29T07:35:09;2.95;;;2.47;;
80229;SDS011;69540;42.136;24.742;2023-05-29T07:37:34;3.00;;;2.55;;
80229;SDS011;69540;42.136;24.742;2023-05-29T07:40:00;2.55;;;2.30;;
80229;SDS011;69540;42.136;24.742;2023-05-29T07:42:26;2.47;;;2.28;;
80229;SDS011;69540;42.136;24.742;2023-05-29T07:44:52;2.97;;;2.50;;
80229;SDS011;69540;42.136;24.742;2023-05-29T07:47:17;2.90;;;2.50;;
80229;SDS011;69540;42.136;24.742;2023-05-29T07:49:43;2.63;;;2.42;;
80229;SDS011;69540;42.136;24.742;2023-05-29T07:52:09;3.40;;;2.40;;
80229;SDS011;69540;42.136;24.742;2023-05-29T07:54:34;2.53;;;2.28;;
80229;SDS011;69540;42.136;24.742;2023-05-29T07:57:00;3.42;;;2.40;;
80229;SDS011;69540;42.136;24.742;2023-05-29T07:59:27;3.03;;;2.47;;
80229;SDS011;69540;42.136;24.742;2023-05-29T08:01:54;2.80;;;2.53;;
80229;SDS011;69540;42.136;24.742;2023-05-29T08:04:23;4.03;;;2.15;;
80229;SDS011;69540;42.136;24.742;2023-05-29T08:06:49;2.70;;;2.50;;
80229;SDS011;69540;42.136;24.742;2023-05-29T08:09:15;2.60;;;2.35;;
80229;SDS011;69540;42.136;24.742;2023-05-29T08:11:42;2.22;;;2.13;;
80229;SDS011;69540;42.136;24.742;2023-05-29T08:14:10;2.47;;;2.28;;
80229;SDS011;69540;42.136;24.742;2023-05-29T08:16:36;3.97;;;2.50;;
80229;SDS011;69540;42.136;24.742;2023-05-29T08:19:02;2.70;;;2.50;;
80229;SDS011;69540;42.136;24.742;2023-05-29T08:21:28;2.63;;;2.20;;
80229;SDS011;69540;42.136;24.742;2023-05-29T08:23:55;2.47;;;2.25;;
80229;SDS011;69540;42.136;24.742;2023-05-29T08:26:20;2.53;;;2.33;;
80229;SDS011;69540;42.136;24.742;2023-05-29T08:28:46;2.85;;;1.92;;
80229;SDS011;69540;42.136;24.742;2023-05-29T08:31:12;2.67;;;2.35;;
80229;SDS011;69540;42.136;24.742;2023-05-29T08:33:38;2.60;;;2.40;;
80229;SDS011;69540;42.136;24.742;2023-05-29T08:36:03;2.30;;;2.20;;
80229;SDS011;69540;42.136;24.742;2023-05-29T08:38:29;2.47;;;2.17;;
80229;SDS011;69540;42.136;24.742;2023-05-29T08:40:56;2.70;;;2.40;;
80229;SDS011;69540;42.136;24.742;2023-05-29T08:43:23;2.65;;;2.40;;
80229;SDS011;69540;42.136;24.742;2023-05-29T08:45:53;6.22;;;2.60;;
80229;SDS011;69540;42.136;24.742;2023-05-29T08:48:22;3.25;;;2.95;;
80229;SDS011;69540;42.136;24.742;2023-05-29T08:50:52;3.00;;;2.70;;
80229;SDS011;69540;42.136;24.742;2023-05-29T08:53:20;2.83;;;2.45;;
80229;SDS011;69540;42.136;24.742;2023-05-29T08:55:47;3.90;;;2.55;;
80229;SDS011;69540;42.136;24.742;2023-05-29T08:58:16;3.10;;;2.90;;
80229;SDS011;69540;42.136;24.742;2023-05-29T09:00:44;3.03;;;2.78;;
80229;SDS011;69540;42.136;24.742;2023-05-29T09:03:11;2.58;;;2.30;;
80229;SDS011;69540;42.136;24.742;2023-05-29T09:05:38;2.70;;;2.38;;
80229;SDS011;69540;42.136;24.742;2023-05-29T09:08:05;3.80;;;2.80;;
80229;SDS011;69540;42.136;24.742;2023-05-29T09:10:32;5.10;;;2.80;;
80229;SDS011;69540;42.136;24.742;2023-05-29T09:12:58;4.47;;;2.90;;
80229;SDS011;69540;42.136;24.742;2023-05-29T09:15:24;5.28;;;3.13;;
80229;SDS011;69540;42.136;24.742;2023-05-29T09:17:50;4.00;;;3.00;;
80229;SDS011;69540;42.136;24.742;2023-05-29T09:20:17;4.95;;;2.50;;
80229;SDS011;69540;42.136;24.742;2023-05-29T09:25:29;7.28;;;3.88;;
80229;SDS011;69540;42.136;24.742;2023-05-29T09:28:04;6.85;;;3.72;;
80229;SDS011;69540;42.136;24.742;2023-05-29T09:33:12;6.15;;;3.67;;
80229;SDS011;69540;42.136;24.742;2023-05-29T09:38:09;7.35;;;3.90;;
80229;SDS011;69540;42.136;24.742;2023-05-29T09:40:44;8.02;;;3.97;;
80229;SDS011;69540;42.136;24.742;2023-05-29T09:45:45;9.07;;;4.00;;
80229;SDS011;69540;42.136;24.742;2023-05-29T09:50:44;8.35;;;4.07;;
80229;SDS011;69540;42.136;24.742;2023-05-29T09:53:23;5.28;;;3.40;;
80229;SDS011;69540;42.136;24.742;2023-05-29T09:55:54;3.63;;;2.88;;
80229;SDS011;69540;42.136;24.742;2023-05-29T09:58:21;4.22;;;3.10;;
80229;SDS011;69540;42.136;24.742;2023-05-29T10:00:48;4.63;;;3.05;;
80229;SDS011;69540;42.136;24.742;2023-05-29T10:03:14;5.13;;;3.17;;
80229;SDS011;69540;42.136;24.742;2023-05-29T10:05:41;5.10;;;3.28;;
80229;SDS011;69540;42.136;24.742;2023-05-29T10:08:08;4.18;;;3.30;;
80229;SDS011;69540;42.136;24.742;2023-05-29T10:10:38;5.03;;;3.10;;
80229;SDS011;69540;42.136;24.742;2023-05-29T10:13:13;4.10;;;2.85;;
80229;SDS011;69540;42.136;24.742;2023-05-29T10:15:45;7.70;;;3.42;;
80229;SDS011;69540;42.136;24.742;2023-05-29T10:21:21;7.10;;;3.20;;
80229;SDS011;69540;42.136;24.742;2023-05-29T10:23:47;5.45;;;3.10;;
80229;SDS011;69540;42.136;24.742;2023-05-29T10:26:27;3.92;;;2.75;;
80229;SDS011;69540;42.136;24.742;2023-05-29T10:34:33;3.88;;;2.80;;
80229;SDS011;69540;42.136;24.742;2023-05-29T10:37:16;5.95;;;2.90;;
80229;SDS011;69540;42.136;24.742;2023-05-29T10:39:52;3.65;;;3.20;;
80229;SDS011;69540;42.136;24.742;2023-05-29T10:45:11;4.00;;;2.77;;
80229;SDS011;69540;42.136;24.742;2023-05-29T10:48:39;3.42;;;2.67;;
80229;SDS011;69540;42.136;24.742;2023-05-29T10:50:53;4.70;;;2.90;;
80229;SDS011;69540;42.136;24.742;2023-05-29T10:53:23;2.67;;;2.47;;
80229;SDS011;69540;42.136;24.742;2023-05-29T10:55:56;4.35;;;2.83;;
80229;SDS011;69540;42.136;24.742;2023-05-29T10:58:26;3.00;;;2.70;;
80229;SDS011;69540;42.136;24.742;2023-05-29T11:00:53;4.47;;;2.67;;
80229;SDS011;69540;42.136;24.742;2023-05-29T11:03:21;3.70;;;2.50;;
80229;SDS011;69540;42.136;24.742;2023-05-29T11:06:04;3.40;;;2.83;;
80229;SDS011;69540;42.136;24.742;2023-05-29T11:08:42;3.17;;;2.50;;
80229;SDS011;69540;42.136;24.742;2023-05-29T11:11:32;2.83;;;2.53;;
80229;SDS011;69540;42.136;24.742;2023-05-29T11:14:03;2.75;;;2.55;;
80229;SDS011;69540;42.136;24.742;2023-05-29T11:19:08;2.88;;;2.65;;
80229;SDS011;69540;42.136;24.742;2023-05-29T11:21:46;2.63;;;2.42;;
80229;SDS011;69540;42.136;24.742;2023-05-29T11:24:23;3.20;;;2.40;;
80229;SDS011;69540;42.136;24.742;2023-05-29T11:26:54;2.38;;;2.17;;
80229;SDS011;69540;42.136;24.742;2023-05-29T11:29:25;2.58;;;2.35;;
80229;SDS011;69540;42.136;24.742;2023-05-29T11:32:03;2.53;;;2.38;;
80229;SDS011;69540;42.136;24.742;2023-05-29T11:34:38;2.97;;;2.67;;
80229;SDS011;69540;42.136;24.742;2023-05-29T11:37:05;2.70;;;2.50;;
80229;SDS011;69540;42.136;24.742;2023-05-29T11:39:31;2.33;;;2.13;;
80229;SDS011;69540;42.136;24.742;2023-05-29T11:42:01;2.88;;;2.67;;
80229;SDS011;69540;42.136;24.742;2023-05-29T11:44:27;3.50;;;2.50;;
80229;SDS011;69540;42.136;24.742;2023-05-29T11:46:59;3.40;;;2.58;;
80229;SDS011;69540;42.136;24.742;2023-05-29T11:49:29;2.40;;;2.30;;
80229;SDS011;69540;42.136;24.742;2023-05-29T11:54:35;2.72;;;2.53;;
80229;SDS011;69540;42.136;24.742;2023-05-29T11:57:02;2.65;;;2.45;;
80229;SDS011;69540;42.136;24.742;2023-05-29T11:59:30;2.50;;;2.30;;
80229;SDS011;69540;42.136;24.742;2023-05-29T12:01:56;2.92;;;2.50;;
80229;SDS011;69540;42.136;24.742;2023-05-29T12:04:22;2.42;;;2.20;;
80229;SDS011;69540;42.136;24.742;2023-05-29T12:06:49;2.72;;;2.33;;
80229;SDS011;69540;42.136;24.742;2023-05-29T12:09:27;3.58;;;2.42;;
80229;SDS011;69540;42.136;24.742;2023-05-29T12:12:00;2.70;;;2.50;;
80229;SDS011;69540;42.136;24.742;2023-05-29T12:14:29;2.60;;;2.40;;
80229;SDS011;69540;42.136;24.742;2023-05-29T12:16:55;2.50;;;2.22;;
80229;SDS011;69540;42.136;24.742;2023-05-29T12:19:21;2.47;;;2.28;;
80229;SDS011;69540;42.136;24.742;2023-05-29T12:21:46;3.17;;;2.33;;
80229;SDS011;69540;42.136;24.742;2023-05-29T12:24:12;3.45;;;2.25;;
80229;SDS011;69540;42.136;24.742;2023-05-29T12:26:38;2.38;;;2.17;;
80229;SDS011;69540;42.136;24.742;2023-05-29T12:29:04;2.45;;;2.25;;
80229;SDS011;69540;42.136;24.742;2023-05-29T12:31:31;2.70;;;2.28;;
80229;SDS011;69540;42.136;24.742;2023-05-29T12:34:00;2.28;;;2.08;;
80229;SDS011;69540;42.136;24.742;2023-05-29T12:36:27;2.30;;;2.10;;
80229;SDS011;69540;42.136;24.742;2023-05-29T12:38:53;2.97;;;2.22;;
80229;SDS011;69540;42.136;24.742;2023-05-29T12:41:22;2.70;;;2.05;;
80229;SDS011;69540;42.136;24.742;2023-05-29T12:43:52;2.53;;;2.10;;
80229;SDS011;69540;42.136;24.742;2023-05-29T12:46:22;2.35;;;2.15;;
80229;SDS011;69540;42.136;24.742;2023-05-29T12:48:48;2.88;;;2.50;;
80229;SDS011;69540;42.136;24.742;2023-05-29T12:51:15;2.40;;;2.20;;
80229;SDS011;69540;42.136;24.742;2023-05-29T12:56:12;2.63;;;2.42;;
80229;SDS011;69540;42.136;24.742;2023-05-29T12:58:38;2.50;;;2.30;;
80229;SDS011;69540;42.136;24.742;2023-05-29T13:01:04;2.47;;;2.30;;
80229;SDS011;69540;42.136;24.742;2023-05-29T13:03:29;2.45;;;2.28;;
80229;SDS011;69540;42.136;24.742;2023-05-29T13:05:55;2.42;;;2.20;;
80229;SDS011;69540;42.136;24.742;2023-05-29T13:08:21;2.28;;;2.08;;
80229;SDS011;69540;42.136;24.742;2023-05-29T13:10:47;2.97;;;2.05;;
80229;SDS011;69540;42.136;24.742;2023-05-29T13:13:12;2.50;;;1.95;;
80229;SDS011;69540;42.136;24.742;2023-05-29T13:15:38;2.25;;;2.10;;
80229;SDS011;69540;42.136;24.742;2023-05-29T13:18:05;2.40;;;2.20;;
80229;SDS011;69540;42.136;24.742;2023-05-29T13:20:31;2.25;;;2.15;;
80229;SDS011;69540;42.136;24.742;2023-05-29T13:22:57;2.55;;;2.28;;
80229;SDS011;69540;42.136;24.742;2023-05-29T13:25:23;2.40;;;2.05;;
80229;SDS011;69540;42.136;24.742;2023-05-29T13:27:50;4.30;;;2.80;;
80229;SDS011;69540;42.136;24.742;2023-05-29T13:30:17;2.35;;;2.17;;
80229;SDS011;69540;42.136;24.742;2023-05-29T13:32:43;2.55;;;2.35;;
80229;SDS011;69540;42.136;24.742;2023-05-29T13:35:09;2.40;;;2.10;;
80229;SDS011;69540;42.136;24.742;2023-05-29T13:37:35;2.35;;;2.10;;
80229;SDS011;69540;42.136;24.742;2023-05-29T13:40:01;2.50;;;2.30;;
80229;SDS011;69540;42.136;24.742;2023-05-29T13:42:28;2.30;;;2.10;;
80229;SDS011;69540;42.136;24.742;2023-05-29T13:44:54;2.20;;;2.00;;
80229;SDS011;69540;42.136;24.742;2023-05-29T13:47:20;3.58;;;2.30;;
80229;SDS011;69540;42.136;24.742;2023-05-29T13:49:45;2.60;;;2.40;;
80229;SDS011;69540;42.136;24.742;2023-05-29T13:52:11;3.33;;;2.50;;
80229;SDS011;69540;42.136;24.742;2023-05-29T13:54:37;3.08;;;2.47;;
80229;SDS011;69540;42.136;24.742;2023-05-29T13:57:03;2.75;;;2.45;;
80229;SDS011;69540;42.136;24.742;2023-05-29T13:59:30;2.28;;;2.08;;
80229;SDS011;69540;42.136;24.742;2023-05-29T14:01:59;2.45;;;2.25;;
80229;SDS011;69540;42.136;24.742;2023-05-29T14:04:25;2.83;;;2.22;;
80229;SDS011;69540;42.136;24.742;2023-05-29T14:06:51;2.65;;;2.25;;
80229;SDS011;69540;42.136;24.742;2023-05-29T14:09:17;3.05;;;2.20;;
80229;SDS011;69540;42.136;24.742;2023-05-29T14:11:51;4.30;;;2.58;;
80229;SDS011;69540;42.136;24.742;2023-05-29T14:14:18;4.15;;;2.50;;
80229;SDS011;69540;42.136;24.742;2023-05-29T14:16:44;3.42;;;2.58;;
80229;SDS011;69540;42.136;24.742;2023-05-29T14:19:09;4.35;;;2.60;;
80229;SDS011;69540;42.136;24.742;2023-05-29T14:21:35;2.50;;;2.30;;
80229;SDS011;69540;42.136;24.742;2023-05-29T14:24:01;4.13;;;2.55;;
80229;SDS011;69540;42.136;24.742;2023-05-29T14:26:26;2.50;;;2.30;;
80229;SDS011;69540;42.136;24.742;2023-05-29T14:28:52;2.67;;;2.35;;
80229;SDS011;69540;42.136;24.742;2023-05-29T14:31:18;3.42;;;2.63;;
80229;SDS011;69540;42.136;24.742;2023-05-29T14:33:43;4.00;;;2.58;;
80229;SDS011;69540;42.136;24.742;2023-05-29T14:36:09;3.35;;;2.80;;
80229;SDS011;69540;42.136;24.742;2023-05-29T14:38:35;3.42;;;2.65;;
80229;SDS011;69540;42.136;24.742;2023-05-29T14:41:01;3.83;;;2.72;;
80229;SDS011;69540;42.136;24.742;2023-05-29T14:43:27;3.65;;;2.50;;
80229;SDS011;69540;42.136;24.742;2023-05-29T14:45:53;2.58;;;2.28;;
80229;SDS011;69540;42.136;24.742;2023-05-29T14:48:18;2.45;;;2.30;;
80229;SDS011;69540;42.136;24.742;2023-05-29T14:50:44;2.67;;;2.20;;
80229;SDS011;69540;42.136;24.742;2023-05-29T14:53:10;2.58;;;2.38;;
80229;SDS011;69540;42.136;24.742;2023-05-29T14:55:35;2.53;;;2.08;;
80229;SDS011;69540;42.136;24.742;2023-05-29T14:58:03;2.95;;;2.53;;
80229;SDS011;69540;42.136;24.742;2023-05-29T15:00:29;2.42;;;2.22;;
80229;SDS011;69540;42.136;24.742;2023-05-29T15:02:56;2.70;;;2.13;;
80229;SDS011;69540;42.136;24.742;2023-05-29T15:05:24;2.30;;;2.10;;
80229;SDS011;69540;42.136;24.742;2023-05-29T15:07:53;2.60;;;2.20;;
80229;SDS011;69540;42.136;24.742;2023-05-29T15:10:21;2.10;;;2.00;;
80229;SDS011;69540;42.136;24.742;2023-05-29T15:12:50;2.40;;;2.10;;
80229;SDS011;69540;42.136;24.742;2023-05-29T15:15:22;2.45;;;2.17;;